sensor_id;sensor_type;location;lat;lon;timestamp;pressure;altitude;pressure_sealevel;temperature;humidity
37792;BME280;29527;55.766;37.570;2024-01-10T00:01:17;98644.97;;;-1.49;70.97
37792;BME280;29527;55.766;37.570;2024-01-10T00:03:43;98601.03;;;-1.63;70.83
37792;BME280;29527;55.766;37.570;2024-01-10T00:06:08;98633.31;;;-1.43;70.99
37792;BME280;29527;55.766;37.570;2024-01-10T00:08:35;98615.00;;;-1.45;70.86
37792;BME280;29527;55.766;37.570;2024-01-10T00:11:00;98629.38;;;-1.35;70.67
37792;BME280;29527;55.766;37.570;2024-01-10T00:13:26;98616.84;;;-1.30;70.58
37792;BME280;29527;55.766;37.570;2024-01-10T00:15:53;98608.75;;;-1.25;70.52
37792;BME280;29527;55.766;37.570;2024-01-10T00:18:18;98605.72;;;-1.17;70.35
37792;BME280;29527;55.766;37.570;2024-01-10T00:20:44;98600.53;;;-1.19;70.61
37792;BME280;29527;55.766;37.570;2024-01-10T00:23:09;98608.34;;;-1.17;70.51
37792;BME280;29527;55.766;37.570;2024-01-10T00:25:35;98605.91;;;-1.20;71.25
37792;BME280;29527;55.766;37.570;2024-01-10T00:28:00;98606.66;;;-1.18;71.00
37792;BME280;29527;55.766;37.570;2024-01-10T00:30:26;98601.41;;;-1.18;71.30
37792;BME280;29527;55.766;37.570;2024-01-10T00:32:51;98602.69;;;-1.09;71.55
37792;BME280;29527;55.766;37.570;2024-01-10T00:35:17;98610.25;;;-1.03;71.75
37792;BME280;29527;55.766;37.570;2024-01-10T00:37:42;98604.59;;;-0.95;71.45
37792;BME280;29527;55.766;37.570;2024-01-10T00:40:09;98611.63;;;-0.96;71.75
37792;BME280;29527;55.766;37.570;2024-01-10T00:42:34;98630.38;;;-0.86;71.52
37792;BME280;29527;55.766;37.570;2024-01-10T00:45:00;98613.69;;;-0.85;71.60
37792;BME280;29527;55.766;37.570;2024-01-10T00:47:26;98597.41;;;-0.76;71.21
37792;BME280;29527;55.766;37.570;2024-01-10T00:49:51;98598.03;;;-0.70;71.35
37792;BME280;29527;55.766;37.570;2024-01-10T00:52:16;98616.69;;;-0.59;71.89
37792;BME280;29527;55.766;37.570;2024-01-10T00:54:42;98618.22;;;-0.55;71.81
37792;BME280;29527;55.766;37.570;2024-01-10T00:57:09;98617.03;;;-0.49;71.62
37792;BME280;29527;55.766;37.570;2024-01-10T00:59:35;98622.06;;;-0.45;72.07
37792;BME280;29527;55.766;37.570;2024-01-10T01:02:00;98629.03;;;-0.44;71.59
37792;BME280;29527;55.766;37.570;2024-01-10T01:04:26;98630.53;;;-0.39;71.78
37792;BME280;29527;55.766;37.570;2024-01-10T01:06:51;98634.75;;;-0.37;71.44
37792;BME280;29527;55.766;37.570;2024-01-10T01:09:17;98645.03;;;-0.32;71.73
37792;BME280;29527;55.766;37.570;2024-01-10T01:11:43;98631.66;;;-0.27;71.53
37792;BME280;29527;55.766;37.570;2024-01-10T01:14:08;98642.16;;;-0.27;71.99
37792;BME280;29527;55.766;37.570;2024-01-10T01:16:34;98645.22;;;-0.19;71.60
37792;BME280;29527;55.766;37.570;2024-01-10T01:18:59;98654.47;;;-0.12;71.07
37792;BME280;29527;55.766;37.570;2024-01-10T01:21:25;98645.56;;;-0.09;71.27
37792;BME280;29527;55.766;37.570;2024-01-10T01:23:50;98650.75;;;-0.08;71.11
37792;BME280;29527;55.766;37.570;2024-01-10T01:26:16;98644.19;;;-0.01;71.28
37792;BME280;29527;55.766;37.570;2024-01-10T01:28:42;98654.47;;;0.04;70.64
37792;BME280;29527;55.766;37.570;2024-01-10T01:31:07;98654.53;;;0.03;71.60
37792;BME280;29527;55.766;37.570;2024-01-10T01:33:32;98662.19;;;0.07;72.07
37792;BME280;29527;55.766;37.570;2024-01-10T01:35:58;98681.28;;;0.11;72.02
37792;BME280;29527;55.766;37.570;2024-01-10T01:38:24;98676.00;;;0.11;71.25
37792;BME280;29527;55.766;37.570;2024-01-10T01:40:49;98673.06;;;0.01;71.29
37792;BME280;29527;55.766;37.570;2024-01-10T01:43:24;98683.25;;;0.07;70.92
37792;BME280;29527;55.766;37.570;2024-01-10T01:45:53;98702.84;;;0.02;70.82
37792;BME280;29527;55.766;37.570;2024-01-10T01:48:20;98688.16;;;-0.03;69.85
37792;BME280;29527;55.766;37.570;2024-01-10T01:50:47;98677.31;;;-0.12;69.78
37792;BME280;29527;55.766;37.570;2024-01-10T01:53:14;98714.56;;;-0.04;69.25
37792;BME280;29527;55.766;37.570;2024-01-10T01:55:42;98723.38;;;-0.05;68.64
37792;BME280;29527;55.766;37.570;2024-01-10T01:58:09;98729.56;;;-0.06;68.77
37792;BME280;29527;55.766;37.570;2024-01-10T02:00:35;98734.59;;;-0.02;68.16
37792;BME280;29527;55.766;37.570;2024-01-10T02:03:01;98745.06;;;0.00;67.50
37792;BME280;29527;55.766;37.570;2024-01-10T02:05:27;98740.28;;;-0.09;67.67
37792;BME280;29527;55.766;37.570;2024-01-10T02:07:53;98781.53;;;-0.10;67.29
37792;BME280;29527;55.766;37.570;2024-01-10T02:10:20;98733.06;;;-0.55;67.34
37792;BME280;29527;55.766;37.570;2024-01-10T02:12:46;98805.28;;;-0.45;67.96
37792;BME280;29527;55.766;37.570;2024-01-10T02:15:13;98805.97;;;-0.59;67.72
37792;BME280;29527;55.766;37.570;2024-01-10T02:17:39;98809.09;;;-0.68;67.55
37792;BME280;29527;55.766;37.570;2024-01-10T02:20:14;98806.63;;;-0.71;66.38
37792;BME280;29527;55.766;37.570;2024-01-10T02:22:43;98818.06;;;-0.90;66.35
37792;BME280;29527;55.766;37.570;2024-01-10T02:25:12;98817.72;;;-1.02;66.38
37792;BME280;29527;55.766;37.570;2024-01-10T02:27:39;98827.44;;;-1.04;65.99
37792;BME280;29527;55.766;37.570;2024-01-10T02:30:06;98842.66;;;-1.10;65.63
37792;BME280;29527;55.766;37.570;2024-01-10T02:32:32;98843.16;;;-1.21;65.92
37792;BME280;29527;55.766;37.570;2024-01-10T02:34:58;98845.28;;;-1.28;65.54
37792;BME280;29527;55.766;37.570;2024-01-10T02:37:24;98862.88;;;-1.30;64.75
37792;BME280;29527;55.766;37.570;2024-01-10T02:39:50;98874.88;;;-1.43;64.56
37792;BME280;29527;55.766;37.570;2024-01-10T02:42:16;98887.41;;;-1.50;64.30
37792;BME280;29527;55.766;37.570;2024-01-10T02:44:42;98894.81;;;-1.59;64.02
37792;BME280;29527;55.766;37.570;2024-01-10T02:47:07;98913.09;;;-1.57;63.49
37792;BME280;29527;55.766;37.570;2024-01-10T02:49:33;98873.91;;;-2.00;62.77
37792;BME280;29527;55.766;37.570;2024-01-10T02:51:59;98922.78;;;-1.78;62.69
37792;BME280;29527;55.766;37.570;2024-01-10T02:54:25;98932.16;;;-1.92;62.69
37792;BME280;29527;55.766;37.570;2024-01-10T02:56:50;98934.16;;;-1.98;62.21
37792;BME280;29527;55.766;37.570;2024-01-10T02:59:16;98958.25;;;-2.09;63.24
37792;BME280;29527;55.766;37.570;2024-01-10T03:01:41;98967.16;;;-2.13;63.07
37792;BME280;29527;55.766;37.570;2024-01-10T03:04:07;98965.47;;;-2.14;63.39
37792;BME280;29527;55.766;37.570;2024-01-10T03:06:32;98974.44;;;-2.20;62.97
37792;BME280;29527;55.766;37.570;2024-01-10T03:08:58;98940.38;;;-2.42;63.16
37792;BME280;29527;55.766;37.570;2024-01-10T03:11:23;98985.75;;;-2.20;62.06
37792;BME280;29527;55.766;37.570;2024-01-10T03:14:01;98999.00;;;-2.23;62.16
37792;BME280;29527;55.766;37.570;2024-01-10T03:16:27;99013.69;;;-2.39;61.61
37792;BME280;29527;55.766;37.570;2024-01-10T03:18:52;99012.06;;;-2.43;62.34
37792;BME280;29527;55.766;37.570;2024-01-10T03:21:18;99026.09;;;-2.45;62.64
37792;BME280;29527;55.766;37.570;2024-01-10T03:23:55;99018.34;;;-2.48;62.34
37792;BME280;29527;55.766;37.570;2024-01-10T03:26:21;99054.50;;;-2.56;61.90
37792;BME280;29527;55.766;37.570;2024-01-10T03:28:47;99049.69;;;-2.67;62.01
37792;BME280;29527;55.766;37.570;2024-01-10T03:31:13;99064.00;;;-2.76;62.35
37792;BME280;29527;55.766;37.570;2024-01-10T03:33:38;99065.81;;;-2.78;62.31
37792;BME280;29527;55.766;37.570;2024-01-10T03:36:05;99092.94;;;-2.79;62.34
37792;BME280;29527;55.766;37.570;2024-01-10T03:38:30;99099.31;;;-2.86;61.88
37792;BME280;29527;55.766;37.570;2024-01-10T03:40:56;99111.00;;;-2.95;62.14
37792;BME280;29527;55.766;37.570;2024-01-10T03:43:22;99105.88;;;-2.98;61.56
37792;BME280;29527;55.766;37.570;2024-01-10T03:45:47;99123.00;;;-3.13;61.57
37792;BME280;29527;55.766;37.570;2024-01-10T03:48:13;99138.09;;;-3.21;61.55
37792;BME280;29527;55.766;37.570;2024-01-10T03:50:38;99146.28;;;-3.30;62.02
37792;BME280;29527;55.766;37.570;2024-01-10T03:53:04;99151.81;;;-3.40;61.35
37792;BME280;29527;55.766;37.570;2024-01-10T03:55:29;99167.16;;;-3.54;62.08
37792;BME280;29527;55.766;37.570;2024-01-10T03:57:56;99173.53;;;-3.63;61.87
37792;BME280;29527;55.766;37.570;2024-01-10T04:00:21;99196.31;;;-3.67;60.93
37792;BME280;29527;55.766;37.570;2024-01-10T04:02:47;99214.03;;;-3.75;60.43
37792;BME280;29527;55.766;37.570;2024-01-10T04:05:12;99230.53;;;-3.73;58.74
37792;BME280;29527;55.766;37.570;2024-01-10T04:07:42;99124.00;;;-4.82;59.19
37792;BME280;29527;55.766;37.570;2024-01-10T04:10:09;99259.97;;;-4.25;58.71
37792;BME280;29527;55.766;37.570;2024-01-10T04:12:36;99255.00;;;-4.34;57.88
37792;BME280;29527;55.766;37.570;2024-01-10T04:15:05;99287.72;;;-4.51;58.12
37792;BME280;29527;55.766;37.570;2024-01-10T04:17:31;99283.69;;;-4.64;58.45
37792;BME280;29527;55.766;37.570;2024-01-10T04:19:57;99298.66;;;-4.69;58.83
37792;BME280;29527;55.766;37.570;2024-01-10T04:22:26;99308.66;;;-4.85;58.85
37792;BME280;29527;55.766;37.570;2024-01-10T04:24:52;99319.72;;;-5.12;59.46
37792;BME280;29527;55.766;37.570;2024-01-10T04:27:17;99323.97;;;-5.08;59.18
37792;BME280;29527;55.766;37.570;2024-01-10T04:29:46;99332.28;;;-5.28;59.74
37792;BME280;29527;55.766;37.570;2024-01-10T04:32:11;99351.50;;;-4.94;57.47
37792;BME280;29527;55.766;37.570;2024-01-10T04:34:36;99361.81;;;-5.24;57.67
37792;BME280;29527;55.766;37.570;2024-01-10T04:37:02;99383.00;;;-5.38;57.69
37792;BME280;29527;55.766;37.570;2024-01-10T04:39:28;99382.50;;;-5.56;56.84
37792;BME280;29527;55.766;37.570;2024-01-10T04:41:54;99391.28;;;-6.01;58.06
37792;BME280;29527;55.766;37.570;2024-01-10T04:44:20;99389.50;;;-6.00;58.52
37792;BME280;29527;55.766;37.570;2024-01-10T04:46:45;99396.97;;;-5.83;57.21
37792;BME280;29527;55.766;37.570;2024-01-10T04:49:11;99346.34;;;-6.59;57.30
37792;BME280;29527;55.766;37.570;2024-01-10T04:51:37;99401.94;;;-6.64;58.20
37792;BME280;29527;55.766;37.570;2024-01-10T04:54:03;99421.88;;;-6.59;58.45
37792;BME280;29527;55.766;37.570;2024-01-10T04:56:28;99427.44;;;-6.83;58.99
37792;BME280;29527;55.766;37.570;2024-01-10T04:58:54;99427.25;;;-6.70;59.54
37792;BME280;29527;55.766;37.570;2024-01-10T05:01:19;99398.38;;;-7.10;60.02
37792;BME280;29527;55.766;37.570;2024-01-10T05:03:45;99457.84;;;-6.85;60.01
37792;BME280;29527;55.766;37.570;2024-01-10T05:06:11;99477.41;;;-6.59;58.39
37792;BME280;29527;55.766;37.570;2024-01-10T05:08:36;99483.38;;;-6.52;57.64
37792;BME280;29527;55.766;37.570;2024-01-10T05:11:02;99478.28;;;-6.60;57.17
37792;BME280;29527;55.766;37.570;2024-01-10T05:13:28;99491.59;;;-6.79;57.90
37792;BME280;29527;55.766;37.570;2024-01-10T05:15:54;99495.38;;;-7.01;58.24
37792;BME280;29527;55.766;37.570;2024-01-10T05:18:21;99508.59;;;-7.15;58.67
37792;BME280;29527;55.766;37.570;2024-01-10T05:20:47;99519.16;;;-7.29;58.58
37792;BME280;29527;55.766;37.570;2024-01-10T05:23:12;99512.47;;;-7.49;59.85
37792;BME280;29527;55.766;37.570;2024-01-10T05:25:38;99521.16;;;-7.48;60.30
37792;BME280;29527;55.766;37.570;2024-01-10T05:28:04;99519.97;;;-7.23;59.02
37792;BME280;29527;55.766;37.570;2024-01-10T05:30:30;99493.66;;;-7.73;59.35
37792;BME280;29527;55.766;37.570;2024-01-10T05:32:55;99538.59;;;-7.57;59.73
37792;BME280;29527;55.766;37.570;2024-01-10T05:35:21;99557.56;;;-7.50;59.89
37792;BME280;29527;55.766;37.570;2024-01-10T05:37:47;99554.19;;;-7.60;60.50
37792;BME280;29527;55.766;37.570;2024-01-10T05:40:12;99558.50;;;-7.57;60.32
37792;BME280;29527;55.766;37.570;2024-01-10T05:42:38;99561.16;;;-7.62;60.31
37792;BME280;29527;55.766;37.570;2024-01-10T05:45:04;99578.34;;;-7.47;60.04
37792;BME280;29527;55.766;37.570;2024-01-10T05:47:31;99561.16;;;-7.62;60.30
37792;BME280;29527;55.766;37.570;2024-01-10T05:49:56;99577.50;;;-7.51;60.58
37792;BME280;29527;55.766;37.570;2024-01-10T05:52:22;99596.53;;;-7.44;60.13
37792;BME280;29527;55.766;37.570;2024-01-10T05:54:48;99589.47;;;-7.37;60.17
37792;BME280;29527;55.766;37.570;2024-01-10T05:57:14;99608.44;;;-7.26;59.69
37792;BME280;29527;55.766;37.570;2024-01-10T05:59:41;99623.78;;;-7.02;58.68
37792;BME280;29527;55.766;37.570;2024-01-10T06:02:06;99620.53;;;-7.20;58.86
37792;BME280;29527;55.766;37.570;2024-01-10T06:04:32;99623.19;;;-7.26;58.68
37792;BME280;29527;55.766;37.570;2024-01-10T06:07:01;99640.59;;;-7.31;58.94
37792;BME280;29527;55.766;37.570;2024-01-10T06:09:27;99657.22;;;-7.45;59.36
37792;BME280;29527;55.766;37.570;2024-01-10T06:11:52;99659.81;;;-7.45;59.62
37792;BME280;29527;55.766;37.570;2024-01-10T06:14:18;99674.53;;;-7.45;59.81
37792;BME280;29527;55.766;37.570;2024-01-10T06:16:44;99683.81;;;-7.19;59.18
37792;BME280;29527;55.766;37.570;2024-01-10T06:19:13;99682.13;;;-7.22;58.37
37792;BME280;29527;55.766;37.570;2024-01-10T06:21:38;99697.72;;;-7.21;58.03
37792;BME280;29527;55.766;37.570;2024-01-10T06:24:04;99710.03;;;-7.40;58.52
37792;BME280;29527;55.766;37.570;2024-01-10T06:26:30;99709.94;;;-7.29;57.75
37792;BME280;29527;55.766;37.570;2024-01-10T06:28:55;99723.13;;;-7.46;58.68
37792;BME280;29527;55.766;37.570;2024-01-10T06:31:21;99722.88;;;-7.24;57.55
37792;BME280;29527;55.766;37.570;2024-01-10T06:33:47;99729.22;;;-7.53;58.28
37792;BME280;29527;55.766;37.570;2024-01-10T06:36:13;99736.31;;;-7.74;58.63
37792;BME280;29527;55.766;37.570;2024-01-10T06:38:39;99741.38;;;-7.55;58.06
37792;BME280;29527;55.766;37.570;2024-01-10T06:41:11;99751.00;;;-7.67;58.94
37792;BME280;29527;55.766;37.570;2024-01-10T06:43:39;99752.53;;;-7.41;58.05
37792;BME280;29527;55.766;37.570;2024-01-10T06:46:06;99745.78;;;-7.64;58.84
37792;BME280;29527;55.766;37.570;2024-01-10T06:48:32;99757.03;;;-7.61;59.11
37792;BME280;29527;55.766;37.570;2024-01-10T06:50:57;99757.88;;;-7.59;59.17
37792;BME280;29527;55.766;37.570;2024-01-10T06:53:23;99761.25;;;-7.48;58.67
37792;BME280;29527;55.766;37.570;2024-01-10T06:55:49;99774.16;;;-7.34;58.17
37792;BME280;29527;55.766;37.570;2024-01-10T06:58:15;99769.75;;;-7.27;57.79
37792;BME280;29527;55.766;37.570;2024-01-10T07:00:40;99774.16;;;-7.36;57.84
37792;BME280;29527;55.766;37.570;2024-01-10T07:03:06;99767.09;;;-7.19;57.59
37792;BME280;29527;55.766;37.570;2024-01-10T07:05:32;99773.16;;;-7.21;57.35
37792;BME280;29527;55.766;37.570;2024-01-10T07:07:58;99773.16;;;-7.19;57.37
37792;BME280;29527;55.766;37.570;2024-01-10T07:10:24;99775.84;;;-7.31;57.42
37792;BME280;29527;55.766;37.570;2024-01-10T07:12:56;99792.31;;;-7.29;57.92
37792;BME280;29527;55.766;37.570;2024-01-10T07:15:22;99793.88;;;-7.10;57.38
37792;BME280;29527;55.766;37.570;2024-01-10T07:17:48;99798.09;;;-6.93;56.08
37792;BME280;29527;55.766;37.570;2024-01-10T07:20:14;99817.19;;;-6.94;55.97
37792;BME280;29527;55.766;37.570;2024-01-10T07:22:40;99813.78;;;-7.02;55.84
37792;BME280;29527;55.766;37.570;2024-01-10T07:25:07;99807.81;;;-7.15;55.94
37792;BME280;29527;55.766;37.570;2024-01-10T07:27:34;99821.56;;;-7.02;55.88
37792;BME280;29527;55.766;37.570;2024-01-10T07:30:07;99836.09;;;-6.77;55.73
37792;BME280;29527;55.766;37.570;2024-01-10T07:32:42;99840.34;;;-6.68;54.86
37792;BME280;29527;55.766;37.570;2024-01-10T07:35:09;99839.56;;;-6.74;54.57
37792;BME280;29527;55.766;37.570;2024-01-10T07:37:41;99837.78;;;-6.71;55.27
37792;BME280;29527;55.766;37.570;2024-01-10T07:40:08;99849.00;;;-6.63;54.94
37792;BME280;29527;55.766;37.570;2024-01-10T07:42:35;99855.94;;;-6.61;54.70
37792;BME280;29527;55.766;37.570;2024-01-10T07:45:01;99851.59;;;-6.61;54.53
37792;BME280;29527;55.766;37.570;2024-01-10T07:47:32;99856.94;;;-6.73;55.00
37792;BME280;29527;55.766;37.570;2024-01-10T07:49:59;99864.88;;;-6.92;55.16
37792;BME280;29527;55.766;37.570;2024-01-10T07:52:25;99862.34;;;-7.01;55.47
37792;BME280;29527;55.766;37.570;2024-01-10T07:54:51;99862.44;;;-7.14;56.12
37792;BME280;29527;55.766;37.570;2024-01-10T07:57:17;99859.81;;;-7.12;55.77
37792;BME280;29527;55.766;37.570;2024-01-10T07:59:45;99867.56;;;-7.04;56.16
37792;BME280;29527;55.766;37.570;2024-01-10T08:02:10;99871.00;;;-6.96;56.55
37792;BME280;29527;55.766;37.570;2024-01-10T08:04:37;99876.09;;;-6.84;56.17
37792;BME280;29527;55.766;37.570;2024-01-10T08:07:03;99859.56;;;-6.80;55.45
37792;BME280;29527;55.766;37.570;2024-01-10T08:09:28;99874.28;;;-6.75;55.46
37792;BME280;29527;55.766;37.570;2024-01-10T08:11:53;99875.22;;;-6.81;54.98
37792;BME280;29527;55.766;37.570;2024-01-10T08:14:19;99874.31;;;-6.79;55.17
37792;BME280;29527;55.766;37.570;2024-01-10T08:16:44;99889.88;;;-6.71;54.82
37792;BME280;29527;55.766;37.570;2024-01-10T08:19:10;99885.47;;;-6.66;54.67
37792;BME280;29527;55.766;37.570;2024-01-10T08:21:36;99839.63;;;-6.81;54.94
37792;BME280;29527;55.766;37.570;2024-01-10T08:24:02;99890.56;;;-6.50;54.45
37792;BME280;29527;55.766;37.570;2024-01-10T08:26:28;99874.06;;;-6.54;54.19
37792;BME280;29527;55.766;37.570;2024-01-10T08:28:54;99885.41;;;-6.58;53.94
37792;BME280;29527;55.766;37.570;2024-01-10T08:31:20;99884.59;;;-6.61;54.57
37792;BME280;29527;55.766;37.570;2024-01-10T08:33:45;99888.97;;;-6.65;54.66
37792;BME280;29527;55.766;37.570;2024-01-10T08:36:12;99891.50;;;-6.59;54.21
37792;BME280;29527;55.766;37.570;2024-01-10T08:38:40;99893.47;;;-6.86;54.48
37792;BME280;29527;55.766;37.570;2024-01-10T08:41:07;99893.66;;;-7.11;54.90
37792;BME280;29527;55.766;37.570;2024-01-10T08:43:34;99891.94;;;-7.13;55.27
37792;BME280;29527;55.766;37.570;2024-01-10T08:46:00;99848.78;;;-7.45;54.95
37792;BME280;29527;55.766;37.570;2024-01-10T08:48:26;99877.28;;;-7.28;55.70
37792;BME280;29527;55.766;37.570;2024-01-10T08:50:51;99896.22;;;-7.06;55.27
37792;BME280;29527;55.766;37.570;2024-01-10T08:53:17;99895.09;;;-6.75;54.64
37792;BME280;29527;55.766;37.570;2024-01-10T08:55:42;99887.41;;;-6.86;54.03
37792;BME280;29527;55.766;37.570;2024-01-10T08:58:08;99897.03;;;-6.96;55.00
37792;BME280;29527;55.766;37.570;2024-01-10T09:00:33;99886.44;;;-6.78;54.64
37792;BME280;29527;55.766;37.570;2024-01-10T09:03:00;99887.97;;;-6.53;54.80
37792;BME280;29527;55.766;37.570;2024-01-10T09:05:26;99900.06;;;-6.44;53.48
37792;BME280;29527;55.766;37.570;2024-01-10T09:07:51;99906.97;;;-6.40;53.47
37792;BME280;29527;55.766;37.570;2024-01-10T09:10:19;99910.50;;;-6.49;53.47
37792;BME280;29527;55.766;37.570;2024-01-10T09:12:47;99913.97;;;-6.47;53.57
37792;BME280;29527;55.766;37.570;2024-01-10T09:15:13;99908.97;;;-6.72;54.24
37792;BME280;29527;55.766;37.570;2024-01-10T09:17:41;99934.19;;;-6.77;54.25
37792;BME280;29527;55.766;37.570;2024-01-10T09:20:07;99916.09;;;-6.96;54.41
37792;BME280;29527;55.766;37.570;2024-01-10T09:22:34;99918.69;;;-6.96;54.66
37792;BME280;29527;55.766;37.570;2024-01-10T09:24:59;99926.50;;;-6.91;54.53
37792;BME280;29527;55.766;37.570;2024-01-10T09:27:30;99920.47;;;-7.02;54.56
37792;BME280;29527;55.766;37.570;2024-01-10T09:29:55;99932.59;;;-6.95;54.91
37792;BME280;29527;55.766;37.570;2024-01-10T09:32:21;99939.47;;;-6.86;54.77
37792;BME280;29527;55.766;37.570;2024-01-10T09:34:47;99947.19;;;-6.74;54.30
37792;BME280;29527;55.766;37.570;2024-01-10T09:37:13;99948.81;;;-6.62;53.78
37792;BME280;29527;55.766;37.570;2024-01-10T09:39:39;99885.72;;;-6.94;53.85
37792;BME280;29527;55.766;37.570;2024-01-10T09:42:05;99941.06;;;-6.70;54.33
37792;BME280;29527;55.766;37.570;2024-01-10T09:44:32;99944.47;;;-6.60;54.66
37792;BME280;29527;55.766;37.570;2024-01-10T09:46:58;99940.94;;;-6.56;53.65
37792;BME280;29527;55.766;37.570;2024-01-10T09:49:25;99940.00;;;-6.47;54.28
37792;BME280;29527;55.766;37.570;2024-01-10T09:51:56;99932.06;;;-6.33;54.99
37792;BME280;29527;55.766;37.570;2024-01-10T09:54:26;99933.69;;;-6.20;53.72
37792;BME280;29527;55.766;37.570;2024-01-10T09:56:51;99947.53;;;-6.13;53.79
37792;BME280;29527;55.766;37.570;2024-01-10T09:59:18;99943.94;;;-6.04;53.45
37792;BME280;29527;55.766;37.570;2024-01-10T10:01:44;99933.50;;;-6.02;53.27
37792;BME280;29527;55.766;37.570;2024-01-10T10:04:11;99952.53;;;-5.96;52.72
37792;BME280;29527;55.766;37.570;2024-01-10T10:06:37;99938.75;;;-6.07;52.76
37792;BME280;29527;55.766;37.570;2024-01-10T10:09:03;99941.47;;;-6.16;52.54
37792;BME280;29527;55.766;37.570;2024-01-10T10:11:30;99938.94;;;-6.24;52.97
37792;BME280;29527;55.766;37.570;2024-01-10T10:13:55;99936.41;;;-6.30;53.04
37792;BME280;29527;55.766;37.570;2024-01-10T10:16:25;99945.13;;;-6.36;53.01
37792;BME280;29527;55.766;37.570;2024-01-10T10:18:54;99941.72;;;-6.43;52.84
37792;BME280;29527;55.766;37.570;2024-01-10T10:21:25;99957.31;;;-6.38;53.00
37792;BME280;29527;55.766;37.570;2024-01-10T10:24:00;99946.00;;;-6.36;53.16
37792;BME280;29527;55.766;37.570;2024-01-10T10:26:27;99945.19;;;-6.42;53.03
37792;BME280;29527;55.766;37.570;2024-01-10T10:28:54;99940.94;;;-6.56;52.91
37792;BME280;29527;55.766;37.570;2024-01-10T10:31:21;99943.72;;;-6.74;53.23
37792;BME280;29527;55.766;37.570;2024-01-10T10:33:48;99945.63;;;-6.95;54.42
37792;BME280;29527;55.766;37.570;2024-01-10T10:36:16;99951.72;;;-7.06;54.85
37792;BME280;29527;55.766;37.570;2024-01-10T10:38:41;99937.91;;;-7.15;55.16
37792;BME280;29527;55.766;37.570;2024-01-10T10:41:07;99950.06;;;-7.13;54.83
37792;BME280;29527;55.766;37.570;2024-01-10T10:43:37;99953.50;;;-7.09;54.70
37792;BME280;29527;55.766;37.570;2024-01-10T10:46:09;99950.03;;;-7.08;54.71
37792;BME280;29527;55.766;37.570;2024-01-10T10:48:38;99943.16;;;-7.22;54.89
37792;BME280;29527;55.766;37.570;2024-01-10T10:51:32;99886.97;;;-7.51;55.15
37792;BME280;29527;55.766;37.570;2024-01-10T10:53:59;99951.75;;;-7.07;55.27
37792;BME280;29527;55.766;37.570;2024-01-10T10:56:29;99952.56;;;-6.97;55.25
37792;BME280;29527;55.766;37.570;2024-01-10T10:58:56;99926.56;;;-7.02;54.54
37792;BME280;29527;55.766;37.570;2024-01-10T11:01:22;99945.50;;;-6.83;55.19
37792;BME280;29527;55.766;37.570;2024-01-10T11:03:48;99940.16;;;-6.64;54.89
37792;BME280;29527;55.766;37.570;2024-01-10T11:06:14;99931.38;;;-6.54;54.69
37792;BME280;29527;55.766;37.570;2024-01-10T11:08:46;99929.63;;;-6.49;54.66
37792;BME280;29527;55.766;37.570;2024-01-10T11:16:49;99943.56;;;-6.54;54.15
37792;BME280;29527;55.766;37.570;2024-01-10T11:23:36;99942.94;;;-6.86;55.12
37792;BME280;29527;55.766;37.570;2024-01-10T11:25:30;99947.38;;;-7.02;55.17
37792;BME280;29527;55.766;37.570;2024-01-10T11:27:56;99930.16;;;-7.26;55.46
37792;BME280;29527;55.766;37.570;2024-01-10T11:30:35;99950.94;;;-7.18;55.51
37792;BME280;29527;55.766;37.570;2024-01-10T11:33:02;99933.69;;;-7.33;55.74
37792;BME280;29527;55.766;37.570;2024-01-10T11:36:12;99940.59;;;-7.29;56.17
37792;BME280;29527;55.766;37.570;2024-01-10T11:41:28;99949.38;;;-7.49;56.10
37792;BME280;29527;55.766;37.570;2024-01-10T11:46:50;99952.88;;;-7.56;56.53
37792;BME280;29527;55.766;37.570;2024-01-10T11:49:22;99954.66;;;-7.65;56.69
37792;BME280;29527;55.766;37.570;2024-01-10T11:51:54;99946.88;;;-7.68;56.50
37792;BME280;29527;55.766;37.570;2024-01-10T11:54:40;99948.53;;;-7.57;56.98
37792;BME280;29527;55.766;37.570;2024-01-10T11:57:14;99952.03;;;-7.58;56.54
37792;BME280;29527;55.766;37.570;2024-01-10T11:59:44;99959.84;;;-7.65;56.84
37792;BME280;29527;55.766;37.570;2024-01-10T12:02:16;99959.88;;;-7.68;56.59
37792;BME280;29527;55.766;37.570;2024-01-10T12:04:43;99945.19;;;-7.83;56.68
37792;BME280;29527;55.766;37.570;2024-01-10T12:07:09;99957.28;;;-7.74;57.40
37792;BME280;29527;55.766;37.570;2024-01-10T12:09:35;99955.53;;;-7.75;56.83
37792;BME280;29527;55.766;37.570;2024-01-10T12:12:03;99927.00;;;-7.87;56.89
37792;BME280;29527;55.766;37.570;2024-01-10T12:14:29;99956.41;;;-7.70;57.20
37792;BME280;29527;55.766;37.570;2024-01-10T12:16:56;99845.78;;;-8.39;57.19
37792;BME280;29527;55.766;37.570;2024-01-10T12:19:21;99951.22;;;-7.70;57.14
37792;BME280;29527;55.766;37.570;2024-01-10T12:21:48;99952.94;;;-7.75;56.81
37792;BME280;29527;55.766;37.570;2024-01-10T12:24:14;99952.91;;;-7.64;57.12
37792;BME280;29527;55.766;37.570;2024-01-10T12:26:44;99957.22;;;-7.57;57.11
37792;BME280;29527;55.766;37.570;2024-01-10T12:29:10;99952.06;;;-7.65;56.65
37792;BME280;29527;55.766;37.570;2024-01-10T12:31:37;99946.84;;;-7.61;56.87
37792;BME280;29527;55.766;37.570;2024-01-10T12:34:06;99960.72;;;-7.67;56.81
37792;BME280;29527;55.766;37.570;2024-01-10T12:36:32;99951.19;;;-7.73;56.63
37792;BME280;29527;55.766;37.570;2024-01-10T12:38:58;99950.38;;;-7.81;56.95
37792;BME280;29527;55.766;37.570;2024-01-10T12:41:26;99966.84;;;-7.82;57.36
37792;BME280;29527;55.766;37.570;2024-01-10T12:43:52;99953.84;;;-7.90;57.19
37792;BME280;29527;55.766;37.570;2024-01-10T12:46:18;99945.22;;;-7.90;57.39
37792;BME280;29527;55.766;37.570;2024-01-10T12:48:43;99947.81;;;-7.94;57.13
37792;BME280;29527;55.766;37.570;2024-01-10T12:51:13;99949.56;;;-7.93;57.28
37792;BME280;29527;55.766;37.570;2024-01-10T12:53:40;99941.75;;;-7.93;57.43
37792;BME280;29527;55.766;37.570;2024-01-10T12:56:07;99943.47;;;-7.91;57.72
37792;BME280;29527;55.766;37.570;2024-01-10T12:58:35;99939.16;;;-7.93;57.25
37792;BME280;29527;55.766;37.570;2024-01-10T13:01:02;99931.38;;;-7.97;56.99
37792;BME280;29527;55.766;37.570;2024-01-10T13:03:31;99923.63;;;-8.11;57.75